Accueil
METAR-TAF:

METAR-TAF

Aéroports :

Benson, Angleterre

latitude: 51-37N, longitude: 001-05W, altitude: 63 m

Observation

Le bulletin a été fait il y a 59 minutes, à 00:50 UTC
Vent 17 kt de sud/sud-ouest
Température 12°C
Humidité 67%
Pression 1017 hPa
Visibilité 10 km ou plus

METAR: EGUB 170050Z AUTO 21017KT 9999 // NCD 12/06 Q1017

Heure: 02:49 (01:49 UTC)

Prévision

Le bulletin a été fait il y a 5 heures et 58 minutes, à 19:51 UTC
Prévision valable du 16 à 21 UTC au 16 à 24 UTC
Vent 15 kt de sud/sud-ouest avec des rafales jusqu'à 25 kt
Visibilité 10 km ou plus
Nuages épars à une hauteur de 3500 ft

TAF: EGUB 161951Z 1621/1624 20015G25KT 9999 SCT035

Observations et prévisions météorologiques de plus de 4000 aéroports (messages METAR et TAF).

Les stations disponibles sont représentées par des disques jaunes et rouges sur la carte.

Passer la souris dessus pour voir le nom de la station.

Cliquer dessus pour voir les observations et prévisions météorologiques.

Pour changer de carte: cliquez sur les boutons verts avec une croix noire pour zoomer, sur le bouton vert avec un tiret pour effectuer un zoom arrière, ou sur les flèches vertes pour les cartes adjacentes.


METAR-TAF: